Current Weather Conditions: station 46145

sailwx.info

Wind from 220 at 9 knots gusting 13

Wave height 2.5 meters (8 feet), 14 second period

Air temperature 9.1° C
Water temperature 9.6° C

Last reported at 2014-Nov-23 23:00 UTC.
Time now 2014-Nov-24 00:09 UTC

Location: N 54°24' W 132°24'.
View on Google Maps.

See reports from other nearby stations

  
Tides and Currents Weather Stations Pressure Air Temp Water Temp Dewpoint Dewpoint Depression Visibility Wind Speed Wind Dir Waves Ship Positions
date/time (UTC)wind fromknots sea level pressurealtimeterstation pressurevisibilityair tempwater tempwave heightnotes
2014-Nov-23 23:00 220 9 gusting 13 9.1 9.6 2.5
2014-Nov-23 22:00 220 11 gusting 15 9.0 9.5 2.4
2014-Nov-23 21:00 260 11 gusting 15 9.0 9.5 2.2
2014-Nov-23 20:00 280 15 gusting 17 9.0 9.5 2.3
2014-Nov-23 19:00 280 13 gusting 23 8.8 9.5 2.1
2014-Nov-23 18:00 260 17 gusting 21 8.6 9.5 2.5
2014-Nov-23 17:00 280 13 gusting 15 9.0 9.5 2.3
2014-Nov-23 16:00 280 13 gusting 19 9.0 9.4 2.4
2014-Nov-23 15:00 300 7 gusting 11 8.7 9.3 2.2
2014-Nov-23 14:00 330 3 gusting 7 7.0 9.4 2.3
2014-Nov-23 13:00 090 3 gusting 5 6.5 9.4 2.4
2014-Nov-23 12:00 040 3 gusting 7 6.4 9.4 2.1
2014-Nov-23 11:00 360 7 gusting 9 6.7 9.3 2.0
2014-Nov-23 10:00 330 7 gusting 9 6.8 9.4 2.1
2014-Nov-23 09:00 020 11 gusting 13 7.3 9.3 2.2
2014-Nov-23 08:00 040 7 gusting 9 7.2 9.4 1.9
2014-Nov-23 07:00 140 7 gusting 11 7.5 9.4 2.1
2014-Nov-23 06:00 170 15 gusting 19 8.3 9.5 2.1
2014-Nov-23 05:00 160 11 gusting 13 8.4 9.5 2.3
2014-Nov-23 04:00 160 13 gusting 15 8.4 9.5 2.4
2014-Nov-23 03:00 170 13 gusting 17 8.0 9.5 2.6
2014-Nov-23 02:00 170 17 gusting 21 7.8 9.5 2.4
2014-Nov-23 01:00 180 15 gusting 19 8.0 9.4 2.3
2014-Nov-23 00:00 170 17 gusting 21 8.1 9.4 2.3
2014-Nov-22 23:00 170 13 gusting 17 8.2 9.2 2.4
2014-Nov-22 22:00 190 13 gusting 15 8.3 9.3 2.5
2014-Nov-22 21:00 180 13 gusting 15 8.5 9.3 2.5
2014-Nov-22 20:00 200 11 gusting 17 8.5 9.3 2.9
2014-Nov-22 19:00 190 13 gusting 15 8.1 9.5 2.7
2014-Nov-22 18:00 180 13 gusting 17 8.0 9.5 2.4
2014-Nov-22 17:00 180 15 gusting 19 8.1 9.5 2.2
2014-Nov-22 16:00 190 15 gusting 19 7.8 9.5 2.1
2014-Nov-22 15:00 180 13 gusting 15 7.8 9.5 2.1
2014-Nov-22 14:00 190 11 gusting 15 8.1 9.5 2.4
2014-Nov-22 13:00 220 11 gusting 13 7.9 9.4 2.3
2014-Nov-22 12:00 190 11 gusting 13 8.1 9.4 2.7
2014-Nov-22 11:00 200 11 gusting 15 8.2 9.4 2.3
2014-Nov-22 10:00 210 11 gusting 15 8.4 9.5 2.5
2014-Nov-22 09:00 250 11 gusting 15 8.5 9.7 2.8
2014-Nov-22 08:00 230 11 gusting 13 8.4 9.6 3.2
2014-Nov-22 07:00 230 9 gusting 11 8.4 9.5 2.7
2014-Nov-22 06:00 240 11 gusting 13 8.3 9.6 3.1
2014-Nov-22 05:00 250 11 gusting 15 8.9 9.6 3.0
2014-Nov-22 04:00 260 11 gusting 15 9.0 9.7 2.6
2014-Nov-22 03:00 250 13 gusting 17 8.8 9.7 2.2
2014-Nov-22 02:00 280 13 gusting 15 9.0 9.8 2.0
2014-Nov-22 01:00 280 9 gusting 13 9.2 9.8 1.9
2014-Nov-22 00:00 260 9 gusting 11 8.8 9.8 1.9